TimeCST,TemperatureF,Dew PointF,Humidity,Sea Level PressureIn,VisibilityMPH,Wind Direction,Wind SpeedMPH,Gust SpeedMPH,PrecipitationIn,Events,Conditions,WindDirDegrees,DateUTC
12:53 AM,39.9,32.0,73,30.41,10.0,SE,6.9,-,N/A,,Clear,140,2012-11-17 06:53:00
1:53 AM,39.9,32.0,73,30.41,10.0,SE,4.6,-,N/A,,Clear,140,2012-11-17 07:53:00
2:53 AM,39.9,30.9,70,30.42,10.0,SSE,6.9,-,N/A,,Clear,160,2012-11-17 08:53:00
3:53 AM,37.9,30.9,76,30.42,10.0,SSE,9.2,-,N/A,,Clear,150,2012-11-17 09:53:00
4:53 AM,37.0,30.9,79,30.42,10.0,SSE,9.2,-,N/A,,Clear,150,2012-11-17 10:53:00
5:53 AM,37.0,30.9,79,30.43,10.0,South,8.1,-,N/A,,Clear,170,2012-11-17 11:53:00
6:53 AM,37.0,28.9,73,30.45,10.0,South,6.9,-,N/A,,Clear,170,2012-11-17 12:53:00
7:53 AM,39.0,30.9,73,30.45,10.0,SSE,6.9,-,N/A,,Clear,160,2012-11-17 13:53:00
8:53 AM,46.0,33.1,61,30.46,10.0,South,6.9,-,N/A,,Clear,170,2012-11-17 14:53:00
9:53 AM,53.1,34.0,48,30.46,10.0,South,8.1,-,N/A,,Clear,170,2012-11-17 15:53:00
10:53 AM,57.0,34.0,42,30.45,10.0,SSE,10.4,-,N/A,,Clear,160,2012-11-17 16:53:00
11:53 AM,61.0,34.0,36,30.42,10.0,SSE,13.8,18.4,N/A,,Clear,160,2012-11-17 17:53:00
12:53 PM,62.1,32.0,32,30.39,10.0,SSE,11.5,-,N/A,,Clear,160,2012-11-17 18:53:00
1:53 PM,63.0,28.9,28,30.37,10.0,South,13.8,-,N/A,,Clear,170,2012-11-17 19:53:00
2:53 PM,62.1,28.9,29,30.35,10.0,SSE,12.7,-,N/A,,Clear,150,2012-11-17 20:53:00
3:53 PM,60.1,30.9,33,30.35,10.0,SSE,10.4,-,N/A,,Clear,160,2012-11-17 21:53:00
4:53 PM,54.0,35.1,49,30.33,10.0,ESE,6.9,-,N/A,,Clear,120,2012-11-17 22:53:00
5:53 PM,52.0,32.0,47,30.34,10.0,SE,6.9,-,N/A,,Clear,130,2012-11-17 23:53:00
6:53 PM,48.9,30.9,50,30.34,10.0,SE,5.8,-,N/A,,Clear,130,2012-11-18 00:53:00
7:53 PM,48.0,30.9,52,30.35,10.0,SE,8.1,-,N/A,,Clear,140,2012-11-18 01:53:00
8:53 PM,46.0,30.0,54,30.35,10.0,SE,9.2,-,N/A,,Clear,140,2012-11-18 02:53:00
9:53 PM,44.1,30.0,58,30.34,10.0,SE,8.1,-,N/A,,Clear,130,2012-11-18 03:53:00
10:53 PM,42.1,28.0,58,30.34,10.0,SSE,6.9,-,N/A,,Clear,150,2012-11-18 04:53:00
11:53 PM,41.0,28.0,60,30.34,10.0,SSE,8.1,-,N/A,,Clear,150,2012-11-18 05:53:00